Capitol Logistics 42


PANC
Ted Stevens Anchorage International Airport
Anchorage, Alaska, US
ZBAD
Beijing Daxing International Airport
Beijing, , CN

Route Details

Aircraft Information
Primary: Boeing 747-400BCF
Backup: Boeing 777-200LRF
Route Data
Distance: 3475nm
Sched. Duration: 7h 34m
Avg. Duration: 8h 63m (+129m)
Times Flown: 4
Recm'd Route: FFITZ4 FFITZ T246 MCG H222 VALDA G212 ARNAP T634 MAGIT R213 JMU IGADO G212 SOTMU
Planned Altitude: 36,000ft
Origin Wx: PANC 231453Z 36010KT 10SM FEW037 OVC045 M11/M17 A2999 RMK AO2 SLP159 T11061167 53015 $
Dest. Wx: ZBAD 231500Z 02001MPS CAVOK 01/M03 Q1019 NOSIG
Notes:

Financial History
Total Freight: 118,589lbs
Average Load: 29,647lbs/flt
Fuel Used: 519,700lbs
Avg. Fuel Used: 129,925lbs/flt
Fuel Expense: $675,610
Avg. Fuel Expense: $168,903
Avg. Fuel Cost: $1.30/lbs
Total Gross Income: $462,497
Pilot Pay: $1,016
Total Expenses: $50,158
Total Revenue: $-272,047
Average Revenue: $115,624.28